Time;durP1;ratioP1;P1;durP2;ratioP2;P2;SDS_P1;SDS_P2;PMS_P1;PMS_P2;Temp;Humidity;BMP_temperature;BMP_pressure;BME280_temperature;BME280_humidity;BME280_pressure;Samples;Min_cycle;Max_cycle;Signal;HPM_P1;HPM_P2
2023/04/01 00:01:25;;;;;;;22.30;11.20;;;;;;;8.62;70.88;97337.36;105556;1254;98449;-69
2023/04/01 00:03:54;;;;;;;25.60;13.20;;;;;;;8.60;71.06;97332.23;105401;1254;111259;-69
2023/04/01 00:06:23;;;;;;;24.40;12.20;;;;;;;8.57;70.98;97336.17;105511;1251;102076;-70
2023/04/01 00:08:51;;;;;;;24.10;12.20;;;;;;;8.55;70.94;97338.76;105380;1256;107074;-69
2023/04/01 00:11:19;;;;;;;23.10;12.20;;;;;;;8.52;71.06;97337.25;105398;1252;98413;-67
2023/04/01 00:13:48;;;;;;;25.70;12.40;;;;;;;8.48;70.99;97341.80;105697;1255;99148;-69
2023/04/01 00:16:16;;;;;;;21.60;11.20;;;;;;;8.46;70.89;97340.92;105529;1254;111261;-70
2023/04/01 00:18:50;;;;;;;23.60;12.30;;;;;;;8.42;71.10;97328.02;105399;1269;102255;-68
2023/04/01 00:21:20;;;;;;;23.20;11.80;;;;;;;8.40;71.02;97329.46;105417;1264;108009;-68
2023/04/01 00:23:49;;;;;;;23.40;11.80;;;;;;;8.38;71.12;97321.15;105543;1251;97966;-72
2023/04/01 00:26:20;;;;;;;24.40;12.60;;;;;;;8.35;71.11;97324.03;105482;1251;98407;-70
2023/04/01 00:28:49;;;;;;;23.20;11.70;;;;;;;8.33;71.10;97322.82;105352;1251;111266;-70
2023/04/01 00:31:18;;;;;;;24.20;12.40;;;;;;;8.31;71.07;97321.90;105655;1254;102227;-69
2023/04/01 00:33:47;;;;;;;23.40;12.40;;;;;;;8.30;71.19;97323.07;105437;1265;107443;-69
2023/04/01 00:36:21;;;;;;;24.50;12.60;;;;;;;8.31;71.43;97321.29;105540;1251;99049;-70
2023/04/01 00:38:50;;;;;;;24.70;11.40;;;;;;;8.32;71.41;97319.75;105313;1257;98430;-71
2023/04/01 00:41:20;;;;;;;23.60;11.70;;;;;;;8.32;71.28;97317.46;105424;1265;111245;-67
2023/04/01 00:43:51;;;;;;;21.80;11.30;;;;;;;8.31;71.37;97319.80;105300;1255;102204;-70
2023/04/01 00:46:19;;;;;;;23.60;11.80;;;;;;;8.31;71.27;97321.05;105433;1254;107700;-68
2023/04/01 00:48:52;;;;;;;24.20;11.60;;;;;;;8.30;71.33;97320.11;105229;1257;97935;-68
2023/04/01 00:51:30;;;;;;;23.10;12.10;;;;;;;8.29;71.40;97312.23;105511;1250;97864;-70
2023/04/01 00:54:01;;;;;;;22.60;11.50;;;;;;;8.28;71.36;97312.83;105500;1251;109266;-69
2023/04/01 00:56:37;;;;;;;22.10;11.70;;;;;;;8.27;71.45;97312.23;105567;1251;102182;-69
2023/04/01 00:59:10;;;;;;;22.20;11.10;;;;;;;8.27;71.40;97312.21;105572;1274;107114;-70
2023/04/01 01:01:38;;;;;;;20.90;10.60;;;;;;;8.26;71.30;97316.94;105376;1254;98026;-68
2023/04/01 01:04:07;;;;;;;21.90;11.50;;;;;;;8.25;71.51;97311.04;105469;1255;98459;-69
2023/04/01 01:06:49;;;;;;;23.40;12.10;;;;;;;8.25;71.43;97320.05;105444;1264;111231;-69
2023/04/01 01:09:26;;;;;;;22.20;11.30;;;;;;;8.25;71.44;97311.59;105405;1254;103215;-69
2023/04/01 01:12:19;;;;;;;21.80;11.50;;;;;;;8.25;71.53;97307.67;105393;1254;107400;-69
2023/04/01 01:15:05;;;;;;;23.20;11.40;;;;;;;8.25;71.54;97310.69;105268;1251;101410;-70
2023/04/01 01:18:05;;;;;;;21.00;10.40;;;;;;;8.25;71.55;97308.70;105348;1251;98374;-69
2023/04/01 01:21:19;;;;;;;20.90;10.40;;;;;;;8.26;71.77;97307.81;105291;1254;112335;-73
2023/04/01 01:24:09;;;;;;;22.70;11.20;;;;;;;8.25;71.53;97303.94;104788;1264;102233;-69
2023/04/01 01:27:05;;;;;;;22.00;11.10;;;;;;;8.24;71.45;97298.55;105550;1264;107346;-69
2023/04/01 01:29:45;;;;;;;21.80;10.00;;;;;;;8.23;71.58;97306.26;105515;1256;97969;-68
2023/04/01 01:32:49;;;;;;;22.90;11.10;;;;;;;8.22;71.53;97302.48;105389;1254;98444;-69
2023/04/01 01:35:22;;;;;;;23.70;11.80;;;;;;;8.19;71.56;97301.27;105492;1250;111804;-69
2023/04/01 01:38:02;;;;;;;21.50;10.90;;;;;;;8.17;71.64;97296.90;105444;1257;101847;-69
2023/04/01 01:40:33;;;;;;;23.40;12.00;;;;;;;8.16;71.59;97300.37;105425;1255;107293;-69
2023/04/01 01:43:09;;;;;;;22.70;11.50;;;;;;;8.14;71.48;97301.58;105475;1251;97951;-68
2023/04/01 01:45:46;;;;;;;21.90;11.20;;;;;;;8.13;71.48;97312.79;105337;1250;99816;-71
2023/04/01 01:48:16;;;;;;;20.60;10.20;;;;;;;8.12;71.64;97316.08;105392;1254;111221;-68
2023/04/01 01:50:46;;;;;;;22.60;11.40;;;;;;;8.11;71.62;97317.36;105618;1252;101915;-69
2023/04/01 01:53:15;;;;;;;21.50;10.40;;;;;;;8.11;71.72;97323.91;105613;1265;107048;-69
2023/04/01 01:55:46;;;;;;;21.30;9.70;;;;;;;8.12;71.73;97324.41;105410;1251;99129;-68
2023/04/01 01:58:42;;;;;;;21.60;10.10;;;;;;;8.13;71.85;97323.96;105536;1250;99256;-72
2023/04/01 02:01:17;;;;;;;21.00;10.70;;;;;;;8.14;71.68;97326.65;105580;1251;110709;-69
2023/04/01 02:03:46;;;;;;;20.10;9.80;;;;;;;8.13;71.71;97324.11;105192;1261;101931;-70
2023/04/01 02:06:18;;;;;;;19.60;9.70;;;;;;;8.12;71.78;97322.77;105440;1265;107425;-72
2023/04/01 02:09:00;;;;;;;20.20;10.20;;;;;;;8.11;71.83;97324.13;105577;1254;97950;-69
2023/04/01 02:11:52;;;;;;;19.10;9.40;;;;;;;8.09;71.84;97330.52;105380;1250;99620;-70
2023/04/01 02:14:36;;;;;;;20.30;10.20;;;;;;;8.07;71.88;97335.27;105456;1266;111232;-71
2023/04/01 02:17:09;;;;;;;21.80;10.30;;;;;;;8.06;71.95;97337.78;105367;1255;101715;-68
2023/04/01 02:19:39;;;;;;;;;;;;;;;8.05;71.84;97336.14;105278;1251;107758;-68
2023/04/01 02:22:12;;;;;;;20.00;9.80;;;;;;;8.02;72.00;97336.74;105355;1254;98315;-68
2023/04/01 02:24:42;;;;;;;19.80;9.50;;;;;;;8.01;71.93;97338.64;105477;1251;97998;-73
2023/04/01 02:27:10;;;;;;;21.80;10.10;;;;;;;7.99;71.82;97334.34;105585;1254;111217;-68
2023/04/01 02:29:41;;;;;;;21.00;10.90;;;;;;;7.97;71.92;97332.41;105521;1254;103678;-72
2023/04/01 02:32:10;;;;;;;19.90;10.00;;;;;;;7.95;71.88;97331.21;105183;1254;107592;-68
2023/04/01 02:34:39;;;;;;;21.20;9.80;;;;;;;7.94;71.77;97336.98;105282;1250;97941;-69
2023/04/01 02:37:07;;;;;;;19.00;9.40;;;;;;;7.92;71.93;97336.59;105769;1251;98436;-70
2023/04/01 02:39:35;;;;;;;21.90;10.30;;;;;;;7.91;72.03;97335.43;105191;1261;111274;-71
2023/04/01 02:42:05;;;;;;;19.20;10.00;;;;;;;7.90;71.86;97336.39;105227;1264;102315;-69
2023/04/01 02:44:33;;;;;;;19.80;10.20;;;;;;;7.90;71.95;97338.16;105301;1257;107204;-72
2023/04/01 02:47:01;;;;;;;20.00;10.20;;;;;;;7.89;72.15;97337.66;105515;1254;97934;-69
2023/04/01 02:49:29;;;;;;;21.40;10.30;;;;;;;7.90;71.96;97338.33;105319;1266;99260;-68
2023/04/01 02:51:57;;;;;;;21.40;9.80;;;;;;;7.91;72.04;97339.11;105210;1254;110815;-69
2023/04/01 02:54:25;;;;;;;20.60;9.90;;;;;;;7.93;72.07;97340.02;105556;1250;101850;-68
2023/04/01 02:56:53;;;;;;;19.20;9.40;;;;;;;7.95;72.06;97342.44;105354;1254;107629;-70
2023/04/01 02:59:21;;;;;;;18.50;9.30;;;;;;;7.97;71.98;97342.11;105395;1254;97940;-68
2023/04/01 03:01:48;;;;;;;20.60;9.30;;;;;;;7.99;72.08;97343.71;105641;1254;98444;-68
2023/04/01 03:04:17;;;;;;;20.40;9.80;;;;;;;8.01;72.15;97349.17;105274;1274;110772;-69
2023/04/01 03:06:45;;;;;;;19.80;9.50;;;;;;;8.02;72.21;97351.88;105337;1273;102879;-68
2023/04/01 03:09:12;;;;;;;16.70;8.10;;;;;;;8.04;72.13;97352.92;105373;1254;107597;-69
2023/04/01 03:11:40;;;;;;;19.30;9.30;;;;;;;8.05;72.14;97353.75;105433;1255;99209;-68
2023/04/01 03:14:08;;;;;;;19.10;9.10;;;;;;;8.05;72.07;97353.78;105331;1250;99161;-69
2023/04/01 03:16:36;;;;;;;19.00;8.10;;;;;;;8.04;72.10;97354.55;105254;1251;111421;-69
2023/04/01 03:19:05;;;;;;;18.70;7.90;;;;;;;8.03;72.04;97351.66;105409;1254;102184;-73
2023/04/01 03:21:32;;;;;;;18.90;8.10;;;;;;;8.02;72.09;97348.34;105421;1257;107601;-71
2023/04/01 03:24:01;;;;;;;18.10;8.00;;;;;;;8.02;72.15;97349.30;105525;1250;97974;-70
2023/04/01 03:26:29;;;;;;;18.10;8.30;;;;;;;8.01;72.10;97350.77;105457;1254;98450;-68
2023/04/01 03:28:57;;;;;;;17.30;7.90;;;;;;;8.01;72.18;97354.14;105596;1250;110833;-69
2023/04/01 03:31:25;;;;;;;15.70;7.30;;;;;;;8.00;72.13;97352.77;105166;1274;102345;-69
2023/04/01 03:33:54;;;;;;;18.70;7.40;;;;;;;7.99;72.05;97355.00;105505;1255;107529;-69
2023/04/01 03:36:22;;;;;;;16.80;8.20;;;;;;;7.99;72.03;97356.11;105480;1251;98091;-69
2023/04/01 03:38:50;;;;;;;17.70;7.60;;;;;;;7.98;72.09;97360.20;105597;1254;99566;-68
2023/04/01 03:41:19;;;;;;;16.20;7.50;;;;;;;7.97;72.07;97364.91;105569;1254;110726;-67
2023/04/01 03:43:47;;;;;;;15.80;6.80;;;;;;;7.96;72.12;97366.23;105366;1254;101478;-70
2023/04/01 03:46:19;;;;;;;18.10;7.00;;;;;;;7.96;72.06;97367.64;105362;1265;107992;-69
2023/04/01 03:48:47;;;;;;;14.90;6.40;;;;;;;7.95;72.13;97367.00;105516;1251;99312;-68
2023/04/01 03:51:15;;;;;;;16.00;6.00;;;;;;;7.94;72.08;97364.78;105572;1251;281555;-69
2023/04/01 03:53:43;;;;;;;14.80;5.80;;;;;;;7.94;72.09;97365.17;105519;1264;109948;-71
2023/04/01 03:56:11;;;;;;;12.20;5.30;;;;;;;7.93;72.10;97363.64;105612;1254;102228;-68
2023/04/01 03:58:39;;;;;;;12.30;4.90;;;;;;;7.94;72.10;97365.70;105508;1254;108926;-68
2023/04/01 04:01:15;;;;;;;13.80;5.80;;;;;;;7.95;72.12;97366.27;105487;1258;98419;-70
2023/04/01 04:03:44;;;;;;;14.10;5.50;;;;;;;7.95;72.12;97362.63;105602;1257;98561;-69
2023/04/01 04:06:17;;;;;;;15.90;5.30;;;;;;;7.94;72.08;97366.08;105389;1251;111185;-68
2023/04/01 04:08:45;;;;;;;16.00;5.50;;;;;;;7.92;72.07;97362.50;105508;1254;102216;-68
2023/04/01 04:11:13;;;;;;;13.00;5.30;;;;;;;7.91;72.07;97365.61;105425;1255;107602;-69
2023/04/01 04:13:42;;;;;;;15.20;6.20;;;;;;;7.91;72.08;97363.49;105425;1254;98868;-68
2023/04/01 04:16:11;;;;;;;14.80;5.80;;;;;;;7.90;72.09;97360.71;105475;1250;99204;-70
2023/04/01 04:18:43;;;;;;;16.50;6.50;;;;;;;7.90;72.07;97362.12;105463;1253;111171;-71
2023/04/01 04:21:15;;;;;;;14.80;5.80;;;;;;;7.90;72.09;97365.48;105276;1251;102413;-70
2023/04/01 04:23:43;;;;;;;16.70;5.90;;;;;;;7.91;72.16;97371.77;105437;1270;107066;-69
2023/04/01 04:26:14;;;;;;;15.80;6.20;;;;;;;7.91;72.10;97365.61;105423;1254;97938;-68
2023/04/01 04:28:42;;;;;;;15.30;5.60;;;;;;;7.92;72.17;97368.21;105430;1254;97915;-69
2023/04/01 04:31:11;;;;;;;14.90;5.50;;;;;;;7.92;72.12;97365.73;105317;1254;110624;-67
2023/04/01 04:33:39;;;;;;;16.10;5.30;;;;;;;7.93;72.13;97368.06;105406;1254;102584;-70
2023/04/01 04:36:07;;;;;;;13.90;5.30;;;;;;;7.94;72.08;97364.81;105565;1259;107422;-68
2023/04/01 04:38:36;;;;;;;14.80;5.20;;;;;;;7.95;72.15;97368.83;105165;1254;101608;-70
2023/04/01 04:41:12;;;;;;;15.50;5.50;;;;;;;7.96;72.17;97367.67;105504;1251;99374;-70
2023/04/01 04:43:41;;;;;;;15.40;5.10;;;;;;;7.97;72.15;97370.71;105501;1254;110669;-69
2023/04/01 04:46:10;;;;;;;16.20;5.40;;;;;;;7.98;72.15;97373.25;105398;1254;102196;-69
2023/04/01 04:48:39;;;;;;;15.50;5.50;;;;;;;8.00;72.14;97371.68;105354;1252;108334;-72
2023/04/01 04:51:07;;;;;;;13.50;4.70;;;;;;;8.01;72.15;97372.88;105246;1251;97936;-69
2023/04/01 04:53:34;;;;;;;12.90;4.80;;;;;;;8.02;72.14;97373.48;105213;1254;98494;-69
2023/04/01 04:56:02;;;;;;;14.00;5.40;;;;;;;8.02;72.05;97372.92;105249;1251;111233;-69
2023/04/01 04:58:30;;;;;;;16.10;5.60;;;;;;;8.04;72.24;97376.81;105293;1254;101929;-69
2023/04/01 05:00:59;;;;;;;16.40;5.10;;;;;;;8.05;72.26;97379.31;105467;1266;107084;-68
2023/04/01 05:03:27;;;;;;;15.50;5.40;;;;;;;8.08;72.12;97377.54;105353;1251;98024;-68
2023/04/01 05:05:55;;;;;;;15.90;5.40;;;;;;;8.10;72.19;97375.08;105464;1252;99359;-70
2023/04/01 05:08:23;;;;;;;17.50;6.10;;;;;;;8.12;72.20;97375.26;105444;1254;111029;-75
2023/04/01 05:10:51;;;;;;;14.00;5.00;;;;;;;8.13;72.10;97379.16;105456;1254;102397;-68
2023/04/01 05:13:19;;;;;;;14.80;5.80;;;;;;;8.15;72.10;97382.13;105585;1251;107223;-68
2023/04/01 05:15:48;;;;;;;13.90;4.70;;;;;;;8.19;72.12;97380.44;105414;1256;97960;-68
2023/04/01 05:18:16;;;;;;;12.50;4.60;;;;;;;8.23;72.09;97384.35;105620;1254;98561;-69
2023/04/01 05:20:49;;;;;;;16.10;4.90;;;;;;;8.27;72.09;97385.02;105283;1254;111898;-71
2023/04/01 05:23:17;;;;;;;16.80;5.00;;;;;;;8.32;72.03;97388.65;105606;1263;101880;-69
2023/04/01 05:25:45;;;;;;;16.50;5.10;;;;;;;8.37;72.13;97389.42;105485;1254;106764;-68
2023/04/01 05:28:13;;;;;;;14.00;5.20;;;;;;;8.41;72.22;97385.16;105531;1253;97941;-69
2023/04/01 05:30:43;;;;;;;13.90;4.80;;;;;;;8.45;72.15;97385.99;105366;1250;98724;-70
2023/04/01 05:33:13;;;;;;;17.30;5.30;;;;;;;8.48;72.14;97390.16;105448;1254;110688;-67
2023/04/01 05:35:41;;;;;;;21.30;5.30;;;;;;;8.53;72.18;97388.35;105722;1250;101938;-70
2023/04/01 05:38:09;;;;;;;15.80;5.30;;;;;;;8.57;72.16;97385.69;105471;1257;107576;-68
2023/04/01 05:40:37;;;;;;;14.20;5.00;;;;;;;8.61;72.07;97389.09;105482;1274;99232;-68
2023/04/01 05:43:05;;;;;;;14.70;5.60;;;;;;;8.65;72.17;97383.55;105406;1251;98376;-69
2023/04/01 05:45:34;;;;;;;20.40;6.10;;;;;;;8.73;72.11;97383.55;105263;1254;111082;-69
2023/04/01 05:48:03;;;;;;;17.10;5.80;;;;;;;8.79;72.11;97384.35;105474;1256;102213;-70
2023/04/01 05:50:31;;;;;;;17.80;5.90;;;;;;;8.86;72.07;97381.62;108695;1251;107479;-69
2023/04/01 05:52:59;;;;;;;20.80;7.40;;;;;;;8.93;72.12;97386.08;108799;1250;95840;-68
2023/04/01 05:55:27;;;;;;;22.30;7.60;;;;;;;9.03;72.03;97389.64;108773;1250;95726;-68
2023/04/01 05:57:55;;;;;;;21.90;7.70;;;;;;;9.12;72.06;97389.84;108817;1250;111787;-68
2023/04/01 06:00:23;;;;;;;19.40;4.80;;;;;;;9.24;72.13;97387.15;108809;1251;101866;-68
2023/04/01 06:02:52;;;;;;;14.60;5.40;;;;;;;9.35;72.01;97387.38;105885;1251;107622;-68
2023/04/01 06:05:22;;;;;;;17.10;5.80;;;;;;;9.45;72.01;97388.50;105407;1257;97940;-68
2023/04/01 06:07:57;;;;;;;19.30;6.30;;;;;;;9.57;71.99;97386.16;105231;1256;99469;-69
2023/04/01 06:10:43;;;;;;;19.50;6.60;;;;;;;9.70;71.97;97384.25;105355;1254;110800;-69
2023/04/01 06:13:26;;;;;;;16.20;5.50;;;;;;;9.86;71.94;97384.65;106488;1254;101650;-69
2023/04/01 06:16:30;;;;;;;19.50;6.40;;;;;;;10.04;71.94;97388.60;105255;1267;107342;-71
2023/04/01 06:19:05;;;;;;;14.50;5.40;;;;;;;10.23;71.57;97388.16;105697;1257;98011;-71
2023/04/01 06:21:51;;;;;;;16.70;5.70;;;;;;;10.38;71.72;97393.61;105649;1250;99364;-69
2023/04/01 06:24:22;;;;;;;14.60;4.70;;;;;;;10.51;71.44;97396.06;105577;1255;111255;-68
2023/04/01 06:27:01;;;;;;;11.70;4.50;;;;;;;10.66;71.59;97396.33;105248;1254;102254;-68
2023/04/01 06:30:03;;;;;;;12.90;4.80;;;;;;;10.79;71.36;97392.35;105504;1270;107587;-69
2023/04/01 06:32:40;;;;;;;13.90;4.30;;;;;;;10.85;71.53;97395.42;105217;1257;97977;-69
2023/04/01 06:35:20;;;;;;;12.60;4.30;;;;;;;10.85;71.15;97400.89;105284;1254;99288;-69
2023/04/01 06:38:13;;;;;;;11.70;4.50;;;;;;;10.80;71.02;97404.56;105408;1254;111319;-70
2023/04/01 06:41:07;;;;;;;12.10;4.00;;;;;;;10.80;71.35;97401.75;105338;1254;102224;-69
2023/04/01 06:44:26;;;;;;;10.90;4.20;;;;;;;10.84;71.15;97403.67;105448;1254;107696;-69
2023/04/01 06:47:02;;;;;;;13.30;4.10;;;;;;;11.01;71.50;97405.36;105469;1254;98036;-69
2023/04/01 06:49:49;;;;;;;11.70;4.10;;;;;;;11.20;71.12;97405.20;105270;1251;98478;-70
2023/04/01 06:52:24;;;;;;;13.00;5.40;;;;;;;11.30;70.44;97405.92;105219;1251;111292;-69
2023/04/01 06:54:57;;;;;;;14.30;4.90;;;;;;;11.33;70.44;97408.13;105584;1254;102244;-69
2023/04/01 06:57:41;;;;;;;14.20;4.80;;;;;;;11.41;70.69;97408.41;105590;1252;107549;-70
2023/04/01 07:00:29;;;;;;;12.20;4.90;;;;;;;11.52;70.71;97405.80;105442;1254;97889;-70
2023/04/01 07:02:59;;;;;;;14.30;4.90;;;;;;;11.65;70.92;97408.23;105486;1254;99013;-69
2023/04/01 07:05:32;;;;;;;15.30;4.80;;;;;;;11.73;69.96;97407.80;105360;1254;111190;-71
2023/04/01 07:08:04;;;;;;;14.40;4.50;;;;;;;11.80;70.19;97409.30;105312;1251;100973;-69
2023/04/01 07:10:54;;;;;;;16.40;4.80;;;;;;;11.90;70.03;97410.96;105362;1252;106675;-69
2023/04/01 07:13:29;;;;;;;15.40;4.60;;;;;;;12.00;70.34;97410.89;105283;1254;99162;-69
2023/04/01 07:16:11;;;;;;;15.20;5.10;;;;;;;12.01;69.03;97409.50;105408;1251;98341;-70
2023/04/01 07:18:56;;;;;;;13.70;4.30;;;;;;;12.03;69.94;97412.50;105372;1254;111240;-70
2023/04/01 07:21:35;;;;;;;16.10;4.50;;;;;;;12.15;69.73;97410.73;105342;1251;101972;-69
2023/04/01 07:24:15;;;;;;;16.40;4.90;;;;;;;12.27;69.63;97415.20;105308;1254;107635;-73
2023/04/01 07:26:44;;;;;;;14.80;4.70;;;;;;;12.29;68.04;97415.11;105356;1273;98049;-69
2023/04/01 07:29:15;;;;;;;13.70;4.40;;;;;;;12.30;69.06;97416.47;105592;1254;98434;-69
2023/04/01 07:32:14;;;;;;;15.90;5.20;;;;;;;12.34;69.14;97418.66;105418;1266;111819;-69
2023/04/01 07:34:53;;;;;;;13.80;4.40;;;;;;;12.32;69.01;97417.41;105451;1254;102130;-70
2023/04/01 07:37:45;;;;;;;14.70;5.20;;;;;;;12.32;69.29;97414.38;105410;1251;107635;-71
2023/04/01 07:40:37;;;;;;;10.90;4.20;;;;;;;12.21;67.63;97423.42;104920;1262;98956;-70
2023/04/01 07:43:30;;;;;;;11.90;4.30;;;;;;;12.04;68.27;97422.73;105427;1254;98865;-70
2023/04/01 07:46:26;;;;;;;13.60;4.40;;;;;;;11.95;68.46;97419.20;105279;1254;110104;-69
2023/04/01 07:49:35;;;;;;;9.40;3.90;;;;;;;11.95;69.01;97420.05;105420;1256;102353;-71
2023/04/01 07:52:14;;;;;;;13.00;4.10;;;;;;;12.01;68.86;97417.34;105223;1257;106711;-71
2023/04/01 07:55:07;;;;;;;8.60;3.90;;;;;;;12.02;68.20;97419.20;105196;1251;97879;-69
2023/04/01 07:57:57;;;;;;;10.10;3.60;;;;;;;11.99;68.34;97415.91;105368;1257;97947;-71
2023/04/01 08:00:37;;;;;;;13.60;4.50;;;;;;;11.96;68.06;97418.23;105194;1254;110813;-69
2023/04/01 08:03:21;;;;;;;10.30;4.20;;;;;;;11.90;68.42;97415.96;105520;1254;102297;-69
2023/04/01 08:05:58;;;;;;;10.10;3.80;;;;;;;11.89;68.26;97413.00;105435;1254;107676;-70
2023/04/01 08:08:42;;;;;;;9.10;3.70;;;;;;;11.95;68.61;97411.15;105353;1251;97960;-69
2023/04/01 08:11:29;;;;;;;15.70;3.70;;;;;;;12.02;68.74;97413.14;105430;1254;97947;-70
2023/04/01 08:14:18;;;;;;;11.10;4.60;;;;;;;12.14;68.83;97412.77;105373;1251;110960;-68
2023/04/01 08:16:55;;;;;;;14.30;3.80;;;;;;;12.28;68.82;97413.60;105497;1251;101266;-70
2023/04/01 08:19:51;;;;;;;12.20;3.70;;;;;;;12.38;68.31;97408.64;105554;1251;107557;-70
2023/04/01 08:22:27;;;;;;;10.30;3.80;;;;;;;12.40;68.00;97409.54;108744;1251;95667;-68
2023/04/01 08:25:02;;;;;;;11.60;4.20;;;;;;;12.41;67.98;97408.58;105599;1251;98453;-72
2023/04/01 08:27:45;;;;;;;10.70;4.10;;;;;;;12.43;68.25;97408.27;105403;1254;110878;-71
2023/04/01 08:30:16;;;;;;;14.40;4.20;;;;;;;12.52;68.21;97405.61;105618;1256;102197;-69
2023/04/01 08:33:20;;;;;;;12.50;3.70;;;;;;;12.64;68.14;97407.85;105573;1257;107330;-68
2023/04/01 08:36:14;;;;;;;9.90;3.50;;;;;;;12.77;68.35;97406.50;105749;1263;97995;-69
2023/04/01 08:38:57;;;;;;;11.20;3.60;;;;;;;12.82;67.48;97406.77;105522;1256;98306;-69
2023/04/01 08:41:53;;;;;;;10.90;3.50;;;;;;;12.76;68.00;97401.96;105475;1256;110825;-69
2023/04/01 08:44:46;;;;;;;11.40;4.10;;;;;;;12.74;67.60;97404.27;105312;1254;102215;-69
2023/04/01 08:47:26;;;;;;;11.10;3.60;;;;;;;12.71;67.90;97403.70;105290;1257;107492;-70
2023/04/01 08:50:10;;;;;;;13.20;4.00;;;;;;;12.77;68.21;97403.39;105223;1255;99131;-70
2023/04/01 08:52:47;;;;;;;17.20;5.00;;;;;;;12.83;68.20;97401.94;105438;1254;98456;-70
2023/04/01 08:55:30;;;;;;;11.50;3.90;;;;;;;12.92;67.83;97407.89;105600;1254;111248;-72
2023/04/01 08:58:04;;;;;;;;;;;;;;;13.12;67.25;97403.44;105558;1254;102242;-69
2023/04/01 09:00:51;;;;;;;13.10;4.10;;;;;;;13.25;67.17;97398.28;107884;1250;107895;-73
2023/04/01 09:03:35;;;;;;;11.40;4.30;;;;;;;13.33;67.81;97400.03;107507;1254;97912;-69
2023/04/01 09:06:37;;;;;;;12.60;4.20;;;;;;;13.40;67.53;97404.45;105601;1254;97923;-70
2023/04/01 09:09:28;;;;;;;11.60;3.80;;;;;;;13.33;67.34;97406.30;105626;1254;111332;-72
2023/04/01 09:12:16;;;;;;;11.10;4.10;;;;;;;13.23;67.36;97402.89;105599;1257;102193;-70
2023/04/01 09:15:21;;;;;;;9.80;3.50;;;;;;;13.18;66.14;97401.84;105408;1253;108922;-69
2023/04/01 09:18:47;;;;;;;8.30;3.50;;;;;;;13.03;66.25;97400.48;105340;1251;98649;-69
2023/04/01 09:21:59;;;;;;;10.20;3.40;;;;;;;12.99;66.83;97405.42;104763;1262;98711;-74
2023/04/01 09:24:59;;;;;;;8.90;3.20;;;;;;;12.94;66.70;97406.05;104720;1260;110718;-72
2023/04/01 09:27:36;;;;;;;10.00;3.30;;;;;;;12.80;66.83;97407.94;105607;1253;101469;-71
2023/04/01 09:30:04;;;;;;;8.00;3.10;;;;;;;12.70;66.97;97410.02;108778;1251;107098;-71
2023/04/01 09:32:50;;;;;;;8.50;3.00;;;;;;;12.65;67.03;97410.09;105789;1251;97953;-71
2023/04/01 09:35:25;;;;;;;10.20;3.00;;;;;;;12.66;66.84;97412.61;105323;1254;98861;-71
2023/04/01 09:38:20;;;;;;;13.10;3.40;;;;;;;12.74;66.95;97415.91;105468;1256;111128;-72
2023/04/01 09:40:55;;;;;;;7.70;3.10;;;;;;;12.75;65.87;97412.86;105391;1266;102005;-72
2023/04/01 09:43:51;;;;;;;8.20;3.90;;;;;;;12.72;66.00;97412.01;105475;1264;107114;-72
2023/04/01 09:46:32;;;;;;;9.10;3.40;;;;;;;12.74;66.40;97407.66;105325;1261;98887;-74
2023/04/01 09:49:48;;;;;;;9.00;3.00;;;;;;;12.81;66.69;97405.86;105478;1257;98567;-73
2023/04/01 09:52:29;;;;;;;6.90;2.40;;;;;;;12.84;65.74;97409.63;105997;1255;111284;-75
2023/04/01 09:55:06;;;;;;;6.00;3.10;;;;;;;12.91;66.33;97406.23;105513;1255;102257;-72
2023/04/01 09:58:21;;;;;;;10.20;3.40;;;;;;;13.10;66.60;97400.90;105552;1256;106795;-71
2023/04/01 10:01:25;;;;;;;9.40;3.40;;;;;;;13.34;66.69;97397.05;105655;1254;98084;-72
2023/04/01 10:03:56;;;;;;;8.90;3.10;;;;;;;13.44;66.52;97396.53;105631;1251;97983;-72
2023/04/01 10:06:51;;;;;;;8.50;2.90;;;;;;;13.42;66.39;97396.27;107410;1254;111217;-74
2023/04/01 10:09:51;;;;;;;9.70;3.50;;;;;;;13.32;66.20;97394.80;105555;1251;102216;-70
2023/04/01 10:12:37;;;;;;;9.40;3.30;;;;;;;13.28;66.22;97391.92;105654;1265;107588;-71
2023/04/01 10:15:33;;;;;;;9.80;3.30;;;;;;;13.26;66.18;97394.36;105194;1251;97985;-70
2023/04/01 10:18:39;;;;;;;10.20;3.50;;;;;;;13.33;66.22;97390.59;105400;1251;99157;-70
2023/04/01 10:21:32;;;;;;;9.80;3.90;;;;;;;13.40;66.04;97390.73;105618;1251;110915;-69
2023/04/01 10:24:18;;;;;;;9.80;4.30;;;;;;;13.42;65.87;97391.13;105293;1256;102038;-69
2023/04/01 10:26:58;;;;;;;9.20;3.60;;;;;;;13.46;66.04;97388.33;105315;1255;107898;-70
2023/04/01 10:29:42;;;;;;;10.40;3.70;;;;;;;13.52;65.46;97393.64;105803;1251;99310;-72
2023/04/01 10:32:30;;;;;;;;;;;;;;;13.52;65.69;97392.10;105351;1251;98059;-73
2023/04/01 10:35:10;;;;;;;17.10;4.80;;;;;;;13.47;65.59;97388.04;105531;1255;111207;-72
2023/04/01 10:37:51;;;;;;;12.10;3.80;;;;;;;13.51;65.66;97383.98;105665;1254;102355;-70
2023/04/01 10:40:35;;;;;;;16.40;5.50;;;;;;;13.60;65.69;97378.35;105463;1251;107424;-69
2023/04/01 10:43:10;;;;;;;21.10;6.80;;;;;;;13.79;65.82;97372.70;106441;1254;97897;-71
2023/04/01 10:45:54;;;;;;;31.10;11.40;;;;;;;14.08;66.01;97368.55;105476;1251;97945;-69
2023/04/01 10:48:51;;;;;;;11.40;3.80;;;;;;;14.37;65.60;97365.39;105455;1256;111233;-70
2023/04/01 10:51:40;;;;;;;24.90;10.20;;;;;;;14.55;65.42;97368.70;105390;1257;102185;-70
2023/04/01 10:54:15;;;;;;;19.50;5.50;;;;;;;14.66;65.04;97370.80;105257;1256;107341;-72
2023/04/01 10:56:52;;;;;;;15.80;5.10;;;;;;;14.68;63.33;97370.09;105319;1251;99166;-70
2023/04/01 10:59:50;;;;;;;19.00;6.20;;;;;;;14.53;62.35;97372.86;105540;1256;97941;-71
2023/04/01 11:03:09;;;;;;;13.10;4.20;;;;;;;14.20;60.88;97374.86;105753;1256;110989;-70
2023/04/01 11:05:59;;;;;;;10.40;3.80;;;;;;;13.96;62.85;97368.67;105295;1262;102727;-71
2023/04/01 11:08:50;;;;;;;10.00;4.10;;;;;;;13.98;63.88;97368.98;105345;1255;108085;-70
2023/04/01 11:11:49;;;;;;;15.00;4.90;;;;;;;14.12;63.74;97372.20;105517;1256;98096;-70
2023/04/01 11:14:50;;;;;;;11.50;4.10;;;;;;;14.24;61.73;97371.16;105244;1257;98884;-71
2023/04/01 11:17:49;;;;;;;13.40;4.00;;;;;;;14.38;62.70;97373.02;105425;1255;111282;-71
2023/04/01 11:20:51;;;;;;;12.50;4.50;;;;;;;14.55;62.15;97371.55;105278;1256;102436;-71
2023/04/01 11:23:41;;;;;;;16.70;5.20;;;;;;;14.68;61.43;97378.65;105199;1273;107644;-71
2023/04/01 11:26:49;;;;;;;27.70;13.60;;;;;;;14.75;60.13;97380.21;105329;1254;97960;-70
2023/04/01 11:29:32;;;;;;;24.80;11.00;;;;;;;14.69;60.61;97381.67;105241;1251;99117;-72
2023/04/01 11:32:25;;;;;;;21.70;7.90;;;;;;;14.80;61.53;97381.67;105417;1257;110808;-70
2023/04/01 11:35:12;;;;;;;24.50;9.70;;;;;;;14.96;62.28;97379.91;108833;1254;100673;-70
2023/04/01 11:38:11;;;;;;;17.30;6.70;;;;;;;15.11;60.67;97373.04;106791;1255;108081;-72
2023/04/01 11:41:01;;;;;;;12.50;4.20;;;;;;;15.25;60.30;97374.97;105814;1254;97985;-72
2023/04/01 11:43:39;;;;;;;9.20;3.40;;;;;;;15.27;60.27;97376.23;105708;1251;98408;-71
2023/04/01 11:46:27;;;;;;;11.20;4.00;;;;;;;15.30;60.42;97372.69;105756;1251;110963;-71
2023/04/01 11:49:23;;;;;;;11.30;3.60;;;;;;;15.34;60.13;97372.94;105496;1257;101910;-71
2023/04/01 11:52:05;;;;;;;9.90;3.60;;;;;;;15.41;59.63;97373.17;105413;1272;107127;-73
2023/04/01 11:54:37;;;;;;;8.70;3.00;;;;;;;15.41;60.39;97376.64;105478;1251;97953;-71
2023/04/01 11:57:17;;;;;;;7.00;3.20;;;;;;;15.39;60.61;97375.99;105495;1256;98414;-70
2023/04/01 12:00:22;;;;;;;7.10;3.50;;;;;;;15.27;59.69;97374.23;105384;1251;111943;-71
2023/04/01 12:03:18;;;;;;;18.10;6.60;;;;;;;15.02;57.95;97378.82;105565;1256;102269;-71
2023/04/01 12:05:50;;;;;;;13.80;4.40;;;;;;;14.75;58.33;97385.46;105519;1267;107582;-70
2023/04/01 12:08:43;;;;;;;13.00;4.50;;;;;;;14.66;59.16;97389.77;105501;1258;97944;-71
2023/04/01 12:11:20;;;;;;;10.20;3.60;;;;;;;14.58;59.83;97389.19;107681;1257;97839;-71